sensor_id;sensor_type;location;lat;lon;timestamp;P1;durP1;ratioP1;P2;durP2;ratioP2
32748;SDS011;19119;52.474;13.710;2024-03-07T00:01:35;148.38;;;44.92;;
32748;SDS011;19119;52.474;13.710;2024-03-07T00:04:03;133.30;;;41.47;;
32748;SDS011;19119;52.474;13.710;2024-03-07T00:06:29;125.68;;;41.22;;
32748;SDS011;19119;52.474;13.710;2024-03-07T00:08:54;139.63;;;41.10;;
32748;SDS011;19119;52.474;13.710;2024-03-07T00:11:20;157.07;;;51.75;;
32748;SDS011;19119;52.474;13.710;2024-03-07T00:13:45;135.80;;;43.00;;
32748;SDS011;19119;52.474;13.710;2024-03-07T00:16:11;137.07;;;42.30;;
32748;SDS011;19119;52.474;13.710;2024-03-07T00:18:36;129.75;;;42.92;;
32748;SDS011;19119;52.474;13.710;2024-03-07T00:21:02;131.55;;;41.13;;
32748;SDS011;19119;52.474;13.710;2024-03-07T00:23:28;133.40;;;42.20;;
32748;SDS011;19119;52.474;13.710;2024-03-07T00:25:53;124.30;;;40.30;;
32748;SDS011;19119;52.474;13.710;2024-03-07T00:28:19;131.00;;;42.20;;
32748;SDS011;19119;52.474;13.710;2024-03-07T00:30:44;118.70;;;37.47;;
32748;SDS011;19119;52.474;13.710;2024-03-07T00:33:13;131.63;;;44.20;;
32748;SDS011;19119;52.474;13.710;2024-03-07T00:35:39;115.90;;;38.50;;
32748;SDS011;19119;52.474;13.710;2024-03-07T00:38:04;126.32;;;43.92;;
32748;SDS011;19119;52.474;13.710;2024-03-07T00:40:30;128.25;;;43.28;;
32748;SDS011;19119;52.474;13.710;2024-03-07T00:42:57;110.05;;;39.17;;
32748;SDS011;19119;52.474;13.710;2024-03-07T00:45:24;124.53;;;40.25;;
32748;SDS011;19119;52.474;13.710;2024-03-07T00:47:49;128.60;;;38.10;;
32748;SDS011;19119;52.474;13.710;2024-03-07T00:50:15;126.03;;;39.42;;
32748;SDS011;19119;52.474;13.710;2024-03-07T00:52:41;117.75;;;36.58;;
32748;SDS011;19119;52.474;13.710;2024-03-07T00:55:06;113.22;;;37.90;;
32748;SDS011;19119;52.474;13.710;2024-03-07T00:57:35;121.85;;;36.90;;
32748;SDS011;19119;52.474;13.710;2024-03-07T01:00:01;132.35;;;38.00;;
32748;SDS011;19119;52.474;13.710;2024-03-07T01:02:27;107.68;;;38.53;;
32748;SDS011;19119;52.474;13.710;2024-03-07T01:04:52;128.82;;;40.90;;
32748;SDS011;19119;52.474;13.710;2024-03-07T01:07:19;134.88;;;41.13;;
32748;SDS011;19119;52.474;13.710;2024-03-07T01:09:46;138.05;;;41.30;;
32748;SDS011;19119;52.474;13.710;2024-03-07T01:12:11;120.90;;;36.63;;
32748;SDS011;19119;52.474;13.710;2024-03-07T01:14:37;123.00;;;39.88;;
32748;SDS011;19119;52.474;13.710;2024-03-07T01:17:02;140.43;;;42.70;;
32748;SDS011;19119;52.474;13.710;2024-03-07T01:19:28;141.70;;;39.50;;
32748;SDS011;19119;52.474;13.710;2024-03-07T01:21:53;142.40;;;40.10;;
32748;SDS011;19119;52.474;13.710;2024-03-07T01:24:19;143.80;;;40.00;;
32748;SDS011;19119;52.474;13.710;2024-03-07T01:26:45;153.73;;;46.83;;
32748;SDS011;19119;52.474;13.710;2024-03-07T01:29:11;145.90;;;39.25;;
32748;SDS011;19119;52.474;13.710;2024-03-07T01:31:36;135.20;;;38.42;;
32748;SDS011;19119;52.474;13.710;2024-03-07T01:34:02;141.50;;;42.58;;
32748;SDS011;19119;52.474;13.710;2024-03-07T01:36:27;126.60;;;38.65;;
32748;SDS011;19119;52.474;13.710;2024-03-07T01:38:53;129.27;;;37.72;;
32748;SDS011;19119;52.474;13.710;2024-03-07T01:41:18;124.53;;;37.70;;
32748;SDS011;19119;52.474;13.710;2024-03-07T01:43:44;116.95;;;34.63;;
32748;SDS011;19119;52.474;13.710;2024-03-07T01:46:09;124.47;;;35.35;;
32748;SDS011;19119;52.474;13.710;2024-03-07T01:48:35;123.15;;;34.85;;
32748;SDS011;19119;52.474;13.710;2024-03-07T01:51:03;122.20;;;36.38;;
32748;SDS011;19119;52.474;13.710;2024-03-07T01:53:29;123.00;;;36.28;;
32748;SDS011;19119;52.474;13.710;2024-03-07T01:55:56;109.65;;;35.78;;
32748;SDS011;19119;52.474;13.710;2024-03-07T01:58:22;116.72;;;34.88;;
32748;SDS011;19119;52.474;13.710;2024-03-07T02:00:49;109.38;;;33.00;;
32748;SDS011;19119;52.474;13.710;2024-03-07T02:03:14;96.57;;;32.78;;
32748;SDS011;19119;52.474;13.710;2024-03-07T02:05:41;107.93;;;33.60;;
32748;SDS011;19119;52.474;13.710;2024-03-07T02:08:06;102.85;;;34.22;;
32748;SDS011;19119;52.474;13.710;2024-03-07T02:10:32;106.90;;;34.85;;
32748;SDS011;19119;52.474;13.710;2024-03-07T02:12:57;102.35;;;33.97;;
32748;SDS011;19119;52.474;13.710;2024-03-07T02:15:23;113.18;;;35.88;;
32748;SDS011;19119;52.474;13.710;2024-03-07T02:17:48;120.47;;;38.53;;
32748;SDS011;19119;52.474;13.710;2024-03-07T02:20:14;100.25;;;35.20;;
32748;SDS011;19119;52.474;13.710;2024-03-07T02:22:40;101.82;;;32.97;;
32748;SDS011;19119;52.474;13.710;2024-03-07T02:25:06;93.50;;;32.05;;
32748;SDS011;19119;52.474;13.710;2024-03-07T02:27:36;96.70;;;32.58;;
32748;SDS011;19119;52.474;13.710;2024-03-07T02:30:02;103.90;;;31.30;;
32748;SDS011;19119;52.474;13.710;2024-03-07T02:32:30;85.07;;;29.48;;
32748;SDS011;19119;52.474;13.710;2024-03-07T02:34:56;90.10;;;30.75;;
32748;SDS011;19119;52.474;13.710;2024-03-07T02:37:22;88.90;;;29.15;;
32748;SDS011;19119;52.474;13.710;2024-03-07T02:39:47;95.63;;;31.13;;
32748;SDS011;19119;52.474;13.710;2024-03-07T02:42:13;89.57;;;30.80;;
32748;SDS011;19119;52.474;13.710;2024-03-07T02:44:38;83.90;;;29.27;;
32748;SDS011;19119;52.474;13.710;2024-03-07T02:47:04;83.63;;;30.55;;
32748;SDS011;19119;52.474;13.710;2024-03-07T02:49:31;76.88;;;30.88;;
32748;SDS011;19119;52.474;13.710;2024-03-07T02:51:56;92.30;;;31.30;;
32748;SDS011;19119;52.474;13.710;2024-03-07T02:54:22;96.47;;;33.42;;
32748;SDS011;19119;52.474;13.710;2024-03-07T02:56:47;90.80;;;31.42;;
32748;SDS011;19119;52.474;13.710;2024-03-07T02:59:13;99.53;;;31.90;;
32748;SDS011;19119;52.474;13.710;2024-03-07T03:01:38;92.05;;;32.53;;
32748;SDS011;19119;52.474;13.710;2024-03-07T03:04:04;82.53;;;29.88;;
32748;SDS011;19119;52.474;13.710;2024-03-07T03:06:29;86.57;;;30.40;;
32748;SDS011;19119;52.474;13.710;2024-03-07T03:08:56;83.55;;;31.17;;
32748;SDS011;19119;52.474;13.710;2024-03-07T03:11:22;83.65;;;29.52;;
32748;SDS011;19119;52.474;13.710;2024-03-07T03:13:47;91.88;;;31.27;;
32748;SDS011;19119;52.474;13.710;2024-03-07T03:16:13;82.68;;;30.08;;
32748;SDS011;19119;52.474;13.710;2024-03-07T03:18:39;84.13;;;30.15;;
32748;SDS011;19119;52.474;13.710;2024-03-07T03:21:04;82.28;;;28.80;;
32748;SDS011;19119;52.474;13.710;2024-03-07T03:23:30;90.28;;;30.90;;
32748;SDS011;19119;52.474;13.710;2024-03-07T03:25:55;78.95;;;29.50;;
32748;SDS011;19119;52.474;13.710;2024-03-07T03:28:21;78.10;;;30.15;;
32748;SDS011;19119;52.474;13.710;2024-03-07T03:30:47;83.25;;;31.05;;
32748;SDS011;19119;52.474;13.710;2024-03-07T03:33:14;73.78;;;28.73;;
32748;SDS011;19119;52.474;13.710;2024-03-07T03:35:40;79.55;;;29.17;;
32748;SDS011;19119;52.474;13.710;2024-03-07T03:38:06;76.55;;;27.52;;
32748;SDS011;19119;52.474;13.710;2024-03-07T03:40:32;71.97;;;28.30;;
32748;SDS011;19119;52.474;13.710;2024-03-07T03:42:59;80.13;;;29.10;;
32748;SDS011;19119;52.474;13.710;2024-03-07T03:45:25;79.57;;;31.35;;
32748;SDS011;19119;52.474;13.710;2024-03-07T03:47:50;74.78;;;29.58;;
32748;SDS011;19119;52.474;13.710;2024-03-07T03:50:17;69.53;;;27.98;;
32748;SDS011;19119;52.474;13.710;2024-03-07T03:52:42;76.47;;;29.48;;
32748;SDS011;19119;52.474;13.710;2024-03-07T03:55:08;67.28;;;28.75;;
32748;SDS011;19119;52.474;13.710;2024-03-07T03:57:35;69.25;;;26.33;;
32748;SDS011;19119;52.474;13.710;2024-03-07T04:00:02;66.68;;;26.52;;
32748;SDS011;19119;52.474;13.710;2024-03-07T04:02:37;70.88;;;26.23;;
32748;SDS011;19119;52.474;13.710;2024-03-07T04:05:08;72.93;;;29.08;;
32748;SDS011;19119;52.474;13.710;2024-03-07T04:07:35;70.20;;;27.85;;
32748;SDS011;19119;52.474;13.710;2024-03-07T04:10:02;73.78;;;27.95;;
32748;SDS011;19119;52.474;13.710;2024-03-07T04:12:28;69.18;;;27.15;;
32748;SDS011;19119;52.474;13.710;2024-03-07T04:14:53;68.07;;;26.23;;
32748;SDS011;19119;52.474;13.710;2024-03-07T04:17:22;72.30;;;25.52;;
32748;SDS011;19119;52.474;13.710;2024-03-07T04:19:47;72.32;;;27.30;;
32748;SDS011;19119;52.474;13.710;2024-03-07T04:22:13;69.95;;;27.85;;
32748;SDS011;19119;52.474;13.710;2024-03-07T04:24:38;64.93;;;27.85;;
32748;SDS011;19119;52.474;13.710;2024-03-07T04:27:05;79.22;;;29.13;;
32748;SDS011;19119;52.474;13.710;2024-03-07T04:29:32;69.20;;;26.98;;
32748;SDS011;19119;52.474;13.710;2024-03-07T04:31:58;59.15;;;26.35;;
32748;SDS011;19119;52.474;13.710;2024-03-07T04:34:26;63.28;;;25.15;;
32748;SDS011;19119;52.474;13.710;2024-03-07T04:36:52;67.47;;;25.67;;
32748;SDS011;19119;52.474;13.710;2024-03-07T04:39:18;65.00;;;25.95;;
32748;SDS011;19119;52.474;13.710;2024-03-07T04:41:55;55.28;;;25.10;;
32748;SDS011;19119;52.474;13.710;2024-03-07T04:44:21;63.13;;;25.80;;
32748;SDS011;19119;52.474;13.710;2024-03-07T04:46:49;68.20;;;25.77;;
32748;SDS011;19119;52.474;13.710;2024-03-07T04:49:20;66.28;;;25.50;;
32748;SDS011;19119;52.474;13.710;2024-03-07T04:51:49;58.83;;;24.73;;
32748;SDS011;19119;52.474;13.710;2024-03-07T04:54:16;60.95;;;25.00;;
32748;SDS011;19119;52.474;13.710;2024-03-07T04:56:42;62.97;;;25.70;;
32748;SDS011;19119;52.474;13.710;2024-03-07T04:59:07;75.38;;;28.65;;
32748;SDS011;19119;52.474;13.710;2024-03-07T05:01:32;63.60;;;28.92;;
32748;SDS011;19119;52.474;13.710;2024-03-07T05:03:58;65.03;;;27.90;;
32748;SDS011;19119;52.474;13.710;2024-03-07T05:06:24;68.05;;;27.65;;
32748;SDS011;19119;52.474;13.710;2024-03-07T05:08:49;55.58;;;24.83;;
32748;SDS011;19119;52.474;13.710;2024-03-07T05:11:15;73.18;;;26.73;;
32748;SDS011;19119;52.474;13.710;2024-03-07T05:13:40;74.57;;;29.10;;
32748;SDS011;19119;52.474;13.710;2024-03-07T05:16:07;69.13;;;26.10;;
32748;SDS011;19119;52.474;13.710;2024-03-07T05:18:33;54.28;;;23.45;;
32748;SDS011;19119;52.474;13.710;2024-03-07T05:20:58;56.33;;;23.73;;
32748;SDS011;19119;52.474;13.710;2024-03-07T05:23:44;54.95;;;22.20;;
32748;SDS011;19119;52.474;13.710;2024-03-07T05:26:09;63.17;;;25.52;;
32748;SDS011;19119;52.474;13.710;2024-03-07T05:28:35;61.17;;;25.10;;
32748;SDS011;19119;52.474;13.710;2024-03-07T05:31:01;62.72;;;24.67;;
32748;SDS011;19119;52.474;13.710;2024-03-07T05:33:29;58.75;;;24.80;;
32748;SDS011;19119;52.474;13.710;2024-03-07T05:35:54;56.90;;;24.17;;
32748;SDS011;19119;52.474;13.710;2024-03-07T05:38:27;66.15;;;26.95;;
32748;SDS011;19119;52.474;13.710;2024-03-07T05:40:53;58.85;;;25.27;;
32748;SDS011;19119;52.474;13.710;2024-03-07T05:43:19;60.00;;;23.75;;
32748;SDS011;19119;52.474;13.710;2024-03-07T05:45:44;59.13;;;25.20;;
32748;SDS011;19119;52.474;13.710;2024-03-07T05:48:13;57.28;;;24.50;;
32748;SDS011;19119;52.474;13.710;2024-03-07T05:53:08;53.47;;;21.55;;
32748;SDS011;19119;52.474;13.710;2024-03-07T05:55:33;43.70;;;22.02;;
32748;SDS011;19119;52.474;13.710;2024-03-07T05:57:59;59.90;;;22.98;;
32748;SDS011;19119;52.474;13.710;2024-03-07T06:00:24;55.90;;;22.52;;
32748;SDS011;19119;52.474;13.710;2024-03-07T06:02:52;51.25;;;21.33;;
32748;SDS011;19119;52.474;13.710;2024-03-07T06:05:18;53.05;;;21.13;;
32748;SDS011;19119;52.474;13.710;2024-03-07T06:07:44;49.13;;;20.75;;
32748;SDS011;19119;52.474;13.710;2024-03-07T06:10:12;61.03;;;26.33;;
32748;SDS011;19119;52.474;13.710;2024-03-07T06:12:38;54.00;;;24.15;;
32748;SDS011;19119;52.474;13.710;2024-03-07T06:15:10;55.78;;;22.85;;
32748;SDS011;19119;52.474;13.710;2024-03-07T06:17:36;53.40;;;23.65;;
32748;SDS011;19119;52.474;13.710;2024-03-07T06:20:01;51.63;;;23.40;;
32748;SDS011;19119;52.474;13.710;2024-03-07T06:22:27;51.75;;;22.08;;
32748;SDS011;19119;52.474;13.710;2024-03-07T06:24:53;52.70;;;23.38;;
32748;SDS011;19119;52.474;13.710;2024-03-07T06:27:18;55.63;;;23.85;;
32748;SDS011;19119;52.474;13.710;2024-03-07T06:30:02;63.58;;;23.38;;
32748;SDS011;19119;52.474;13.710;2024-03-07T06:32:28;53.95;;;23.90;;
32748;SDS011;19119;52.474;13.710;2024-03-07T06:34:53;53.78;;;23.38;;
32748;SDS011;19119;52.474;13.710;2024-03-07T06:37:19;48.92;;;21.15;;
32748;SDS011;19119;52.474;13.710;2024-03-07T06:39:44;51.63;;;23.42;;
32748;SDS011;19119;52.474;13.710;2024-03-07T06:42:09;56.83;;;23.90;;
32748;SDS011;19119;52.474;13.710;2024-03-07T06:44:35;46.53;;;21.85;;
32748;SDS011;19119;52.474;13.710;2024-03-07T06:47:00;45.97;;;21.85;;
32748;SDS011;19119;52.474;13.710;2024-03-07T06:49:26;42.95;;;21.30;;
32748;SDS011;19119;52.474;13.710;2024-03-07T06:51:53;50.00;;;21.23;;
32748;SDS011;19119;52.474;13.710;2024-03-07T06:54:19;44.60;;;20.25;;
32748;SDS011;19119;52.474;13.710;2024-03-07T06:56:46;49.25;;;25.70;;
32748;SDS011;19119;52.474;13.710;2024-03-07T06:59:11;42.88;;;19.73;;
32748;SDS011;19119;52.474;13.710;2024-03-07T07:01:39;46.47;;;20.63;;
32748;SDS011;19119;52.474;13.710;2024-03-07T07:04:07;49.38;;;23.58;;
32748;SDS011;19119;52.474;13.710;2024-03-07T07:06:33;42.05;;;20.60;;
32748;SDS011;19119;52.474;13.710;2024-03-07T07:08:59;45.25;;;19.83;;
32748;SDS011;19119;52.474;13.710;2024-03-07T07:11:27;42.10;;;20.17;;
32748;SDS011;19119;52.474;13.710;2024-03-07T07:13:53;38.22;;;19.73;;
32748;SDS011;19119;52.474;13.710;2024-03-07T07:16:18;35.78;;;16.92;;
32748;SDS011;19119;52.474;13.710;2024-03-07T07:18:44;41.85;;;17.63;;
32748;SDS011;19119;52.474;13.710;2024-03-07T07:21:10;37.13;;;17.70;;
32748;SDS011;19119;52.474;13.710;2024-03-07T07:23:35;37.83;;;18.98;;
32748;SDS011;19119;52.474;13.710;2024-03-07T07:26:01;31.55;;;16.80;;
32748;SDS011;19119;52.474;13.710;2024-03-07T07:28:27;35.70;;;18.50;;
32748;SDS011;19119;52.474;13.710;2024-03-07T07:30:52;37.47;;;19.65;;
32748;SDS011;19119;52.474;13.710;2024-03-07T07:33:18;32.00;;;16.40;;
32748;SDS011;19119;52.474;13.710;2024-03-07T07:35:44;36.05;;;15.85;;
32748;SDS011;19119;52.474;13.710;2024-03-07T07:38:10;37.33;;;20.10;;
32748;SDS011;19119;52.474;13.710;2024-03-07T07:40:37;38.88;;;17.15;;
32748;SDS011;19119;52.474;13.710;2024-03-07T07:43:03;37.33;;;19.45;;
32748;SDS011;19119;52.474;13.710;2024-03-07T07:45:29;32.97;;;18.45;;
32748;SDS011;19119;52.474;13.710;2024-03-07T07:47:57;35.35;;;18.02;;
32748;SDS011;19119;52.474;13.710;2024-03-07T07:50:24;34.55;;;18.45;;
32748;SDS011;19119;52.474;13.710;2024-03-07T07:52:50;31.50;;;18.30;;
32748;SDS011;19119;52.474;13.710;2024-03-07T07:55:20;36.90;;;19.17;;
32748;SDS011;19119;52.474;13.710;2024-03-07T07:57:48;35.17;;;16.95;;
32748;SDS011;19119;52.474;13.710;2024-03-07T08:00:19;31.67;;;17.15;;
32748;SDS011;19119;52.474;13.710;2024-03-07T08:05:14;38.40;;;19.55;;
32748;SDS011;19119;52.474;13.710;2024-03-07T08:07:42;33.63;;;17.05;;
32748;SDS011;19119;52.474;13.710;2024-03-07T08:10:08;40.03;;;20.15;;
32748;SDS011;19119;52.474;13.710;2024-03-07T08:12:34;38.13;;;20.95;;
32748;SDS011;19119;52.474;13.710;2024-03-07T08:15:02;40.33;;;19.52;;
32748;SDS011;19119;52.474;13.710;2024-03-07T08:17:30;36.47;;;19.00;;
32748;SDS011;19119;52.474;13.710;2024-03-07T08:19:56;35.30;;;16.83;;
32748;SDS011;19119;52.474;13.710;2024-03-07T08:22:22;29.38;;;15.73;;
32748;SDS011;19119;52.474;13.710;2024-03-07T08:24:47;38.20;;;20.33;;
32748;SDS011;19119;52.474;13.710;2024-03-07T08:27:13;36.47;;;20.75;;
32748;SDS011;19119;52.474;13.710;2024-03-07T08:29:38;33.42;;;19.45;;
32748;SDS011;19119;52.474;13.710;2024-03-07T08:32:04;36.03;;;18.00;;
32748;SDS011;19119;52.474;13.710;2024-03-07T08:34:30;38.60;;;16.50;;
32748;SDS011;19119;52.474;13.710;2024-03-07T08:36:55;37.05;;;17.05;;
32748;SDS011;19119;52.474;13.710;2024-03-07T08:39:21;30.50;;;17.33;;
32748;SDS011;19119;52.474;13.710;2024-03-07T08:41:47;29.50;;;15.88;;
32748;SDS011;19119;52.474;13.710;2024-03-07T08:44:13;31.55;;;17.38;;
32748;SDS011;19119;52.474;13.710;2024-03-07T08:46:38;35.67;;;18.80;;
32748;SDS011;19119;52.474;13.710;2024-03-07T08:49:04;28.90;;;16.67;;
32748;SDS011;19119;52.474;13.710;2024-03-07T08:51:30;31.85;;;16.25;;
32748;SDS011;19119;52.474;13.710;2024-03-07T08:53:56;28.33;;;14.82;;
32748;SDS011;19119;52.474;13.710;2024-03-07T08:56:21;30.40;;;16.35;;
32748;SDS011;19119;52.474;13.710;2024-03-07T08:58:47;28.70;;;14.88;;
32748;SDS011;19119;52.474;13.710;2024-03-07T09:01:13;31.38;;;16.52;;
32748;SDS011;19119;52.474;13.710;2024-03-07T09:03:38;32.67;;;18.90;;
32748;SDS011;19119;52.474;13.710;2024-03-07T09:06:04;28.80;;;13.73;;
32748;SDS011;19119;52.474;13.710;2024-03-07T09:08:30;29.85;;;13.70;;
32748;SDS011;19119;52.474;13.710;2024-03-07T09:10:56;25.58;;;13.85;;
32748;SDS011;19119;52.474;13.710;2024-03-07T09:13:22;26.77;;;15.82;;
32748;SDS011;19119;52.474;13.710;2024-03-07T09:15:48;29.77;;;15.25;;
32748;SDS011;19119;52.474;13.710;2024-03-07T09:18:13;31.42;;;15.82;;
32748;SDS011;19119;52.474;13.710;2024-03-07T09:20:39;32.90;;;17.25;;
32748;SDS011;19119;52.474;13.710;2024-03-07T10:53:50;20.83;;;9.63;;
32748;SDS011;19119;52.474;13.710;2024-03-07T10:59:19;21.60;;;11.30;;
32748;SDS011;19119;52.474;13.710;2024-03-07T11:04:41;22.98;;;12.93;;
32748;SDS011;19119;52.474;13.710;2024-03-07T11:07:07;30.00;;;13.70;;
32748;SDS011;19119;52.474;13.710;2024-03-07T11:09:35;22.48;;;11.55;;
32748;SDS011;19119;52.474;13.710;2024-03-07T11:12:02;18.00;;;10.45;;
32748;SDS011;19119;52.474;13.710;2024-03-07T11:14:28;20.98;;;12.23;;
32748;SDS011;19119;52.474;13.710;2024-03-07T11:16:55;21.92;;;13.32;;
32748;SDS011;19119;52.474;13.710;2024-03-07T11:19:26;25.10;;;13.25;;
32748;SDS011;19119;52.474;13.710;2024-03-07T11:21:54;23.15;;;12.80;;
32748;SDS011;19119;52.474;13.710;2024-03-07T11:24:24;25.33;;;14.07;;
32748;SDS011;19119;52.474;13.710;2024-03-07T11:32:08;22.75;;;13.15;;
32748;SDS011;19119;52.474;13.710;2024-03-07T11:34:37;23.48;;;14.13;;
32748;SDS011;19119;52.474;13.710;2024-03-07T11:37:06;22.42;;;12.70;;
32748;SDS011;19119;52.474;13.710;2024-03-07T11:39:39;23.50;;;13.73;;
32748;SDS011;19119;52.474;13.710;2024-03-07T11:42:28;21.23;;;14.13;;
32748;SDS011;19119;52.474;13.710;2024-03-07T11:44:56;19.75;;;12.07;;
32748;SDS011;19119;52.474;13.710;2024-03-07T11:47:25;21.10;;;12.15;;
32748;SDS011;19119;52.474;13.710;2024-03-07T11:49:55;19.85;;;11.95;;
32748;SDS011;19119;52.474;13.710;2024-03-07T11:52:22;25.33;;;12.13;;
32748;SDS011;19119;52.474;13.710;2024-03-07T11:54:49;19.73;;;11.30;;
32748;SDS011;19119;52.474;13.710;2024-03-07T11:57:16;22.65;;;9.70;;
32748;SDS011;19119;52.474;13.710;2024-03-07T11:59:44;23.15;;;12.50;;
32748;SDS011;19119;52.474;13.710;2024-03-07T12:02:14;24.00;;;15.13;;
32748;SDS011;19119;52.474;13.710;2024-03-07T12:04:46;24.75;;;15.90;;
32748;SDS011;19119;52.474;13.710;2024-03-07T12:07:12;20.23;;;12.55;;
32748;SDS011;19119;52.474;13.710;2024-03-07T12:09:38;24.58;;;13.23;;
32748;SDS011;19119;52.474;13.710;2024-03-07T12:12:07;19.13;;;12.75;;
32748;SDS011;19119;52.474;13.710;2024-03-07T12:14:34;22.33;;;12.48;;
32748;SDS011;19119;52.474;13.710;2024-03-07T12:17:02;20.50;;;13.35;;
32748;SDS011;19119;52.474;13.710;2024-03-07T12:19:32;23.73;;;12.30;;
32748;SDS011;19119;52.474;13.710;2024-03-07T12:22:01;23.95;;;13.30;;
32748;SDS011;19119;52.474;13.710;2024-03-07T12:24:27;18.83;;;11.55;;
32748;SDS011;19119;52.474;13.710;2024-03-07T12:27:04;20.13;;;13.02;;
32748;SDS011;19119;52.474;13.710;2024-03-07T12:29:31;27.25;;;14.27;;
32748;SDS011;19119;52.474;13.710;2024-03-07T12:31:57;19.80;;;11.38;;
32748;SDS011;19119;52.474;13.710;2024-03-07T12:34:23;21.23;;;13.27;;
32748;SDS011;19119;52.474;13.710;2024-03-07T12:36:51;20.48;;;12.23;;
32748;SDS011;19119;52.474;13.710;2024-03-07T12:39:21;21.65;;;13.25;;
32748;SDS011;19119;52.474;13.710;2024-03-07T12:41:51;21.95;;;13.57;;
32748;SDS011;19119;52.474;13.710;2024-03-07T12:44:20;21.27;;;13.20;;
32748;SDS011;19119;52.474;13.710;2024-03-07T12:46:47;23.60;;;14.10;;
32748;SDS011;19119;52.474;13.710;2024-03-07T12:49:22;24.10;;;14.90;;
32748;SDS011;19119;52.474;13.710;2024-03-07T12:51:52;24.88;;;15.15;;
32748;SDS011;19119;52.474;13.710;2024-03-07T12:54:21;21.13;;;15.60;;
32748;SDS011;19119;52.474;13.710;2024-03-07T12:56:47;22.67;;;13.55;;
32748;SDS011;19119;52.474;13.710;2024-03-07T12:59:15;19.27;;;12.45;;
32748;SDS011;19119;52.474;13.710;2024-03-07T13:01:41;23.83;;;12.55;;
32748;SDS011;19119;52.474;13.710;2024-03-07T13:04:10;20.88;;;12.07;;
32748;SDS011;19119;52.474;13.710;2024-03-07T13:06:36;24.00;;;14.55;;
32748;SDS011;19119;52.474;13.710;2024-03-07T13:09:01;19.90;;;12.13;;
32748;SDS011;19119;52.474;13.710;2024-03-07T13:11:28;25.20;;;13.43;;
32748;SDS011;19119;52.474;13.710;2024-03-07T13:13:57;21.70;;;12.57;;
32748;SDS011;19119;52.474;13.710;2024-03-07T13:16:22;20.38;;;12.07;;
32748;SDS011;19119;52.474;13.710;2024-03-07T13:18:53;19.63;;;12.63;;
32748;SDS011;19119;52.474;13.710;2024-03-07T13:21:19;20.58;;;11.70;;
32748;SDS011;19119;52.474;13.710;2024-03-07T13:23:45;19.85;;;13.85;;
32748;SDS011;19119;52.474;13.710;2024-03-07T13:26:11;23.55;;;14.43;;
32748;SDS011;19119;52.474;13.710;2024-03-07T13:28:41;22.27;;;11.73;;
32748;SDS011;19119;52.474;13.710;2024-03-07T13:31:09;20.63;;;12.68;;
32748;SDS011;19119;52.474;13.710;2024-03-07T13:33:36;19.30;;;10.65;;
32748;SDS011;19119;52.474;13.710;2024-03-07T13:36:02;21.75;;;13.07;;
32748;SDS011;19119;52.474;13.710;2024-03-07T13:38:29;21.83;;;12.98;;
32748;SDS011;19119;52.474;13.710;2024-03-07T13:40:54;21.63;;;14.43;;
32748;SDS011;19119;52.474;13.710;2024-03-07T13:43:22;24.38;;;12.25;;
32748;SDS011;19119;52.474;13.710;2024-03-07T13:45:48;22.63;;;11.80;;
32748;SDS011;19119;52.474;13.710;2024-03-07T13:48:13;22.30;;;12.88;;
32748;SDS011;19119;52.474;13.710;2024-03-07T13:50:41;20.27;;;11.88;;
32748;SDS011;19119;52.474;13.710;2024-03-07T13:53:12;20.92;;;12.73;;
32748;SDS011;19119;52.474;13.710;2024-03-07T14:09:22;19.55;;;11.88;;
32748;SDS011;19119;52.474;13.710;2024-03-07T14:15:38;25.17;;;11.20;;
32748;SDS011;19119;52.474;13.710;2024-03-07T14:24:07;19.05;;;12.88;;
32748;SDS011;19119;52.474;13.710;2024-03-07T14:30:24;22.00;;;12.50;;
32748;SDS011;19119;52.474;13.710;2024-03-07T14:33:05;21.85;;;14.23;;
32748;SDS011;19119;52.474;13.710;2024-03-07T14:35:35;23.75;;;13.32;;
32748;SDS011;19119;52.474;13.710;2024-03-07T14:38:06;20.52;;;12.25;;
32748;SDS011;19119;52.474;13.710;2024-03-07T14:40:53;22.50;;;12.45;;
32748;SDS011;19119;52.474;13.710;2024-03-07T14:43:21;19.73;;;11.40;;
32748;SDS011;19119;52.474;13.710;2024-03-07T14:45:47;23.10;;;13.57;;
32748;SDS011;19119;52.474;13.710;2024-03-07T14:48:14;20.42;;;10.77;;
32748;SDS011;19119;52.474;13.710;2024-03-07T14:50:43;18.02;;;10.48;;
32748;SDS011;19119;52.474;13.710;2024-03-07T14:53:11;21.05;;;11.35;;
32748;SDS011;19119;52.474;13.710;2024-03-07T14:55:38;17.92;;;11.85;;
32748;SDS011;19119;52.474;13.710;2024-03-07T14:58:05;18.80;;;10.73;;
32748;SDS011;19119;52.474;13.710;2024-03-07T15:00:34;21.02;;;11.27;;
32748;SDS011;19119;52.474;13.710;2024-03-07T15:03:05;21.17;;;11.98;;
32748;SDS011;19119;52.474;13.710;2024-03-07T15:05:36;20.58;;;11.75;;
32748;SDS011;19119;52.474;13.710;2024-03-07T15:08:02;21.95;;;11.27;;
32748;SDS011;19119;52.474;13.710;2024-03-07T15:10:36;22.63;;;10.55;;
32748;SDS011;19119;52.474;13.710;2024-03-07T15:13:03;19.95;;;11.32;;
32748;SDS011;19119;52.474;13.710;2024-03-07T15:15:29;21.58;;;12.27;;
32748;SDS011;19119;52.474;13.710;2024-03-07T15:17:58;21.63;;;10.82;;
32748;SDS011;19119;52.474;13.710;2024-03-07T15:20:24;23.50;;;13.15;;
32748;SDS011;19119;52.474;13.710;2024-03-07T15:22:55;20.95;;;11.20;;
32748;SDS011;19119;52.474;13.710;2024-03-07T15:25:22;22.75;;;12.60;;
32748;SDS011;19119;52.474;13.710;2024-03-07T15:27:51;23.92;;;11.07;;
32748;SDS011;19119;52.474;13.710;2024-03-07T15:30:21;23.60;;;11.32;;
32748;SDS011;19119;52.474;13.710;2024-03-07T15:32:49;19.17;;;10.65;;
32748;SDS011;19119;52.474;13.710;2024-03-07T15:35:15;22.33;;;12.27;;
32748;SDS011;19119;52.474;13.710;2024-03-07T15:37:43;19.05;;;11.85;;
32748;SDS011;19119;52.474;13.710;2024-03-07T15:40:17;19.75;;;10.07;;
32748;SDS011;19119;52.474;13.710;2024-03-07T15:42:43;23.75;;;11.18;;
32748;SDS011;19119;52.474;13.710;2024-03-07T15:45:14;21.35;;;12.18;;
32748;SDS011;19119;52.474;13.710;2024-03-07T15:47:56;20.52;;;12.02;;
32748;SDS011;19119;52.474;13.710;2024-03-07T15:50:35;21.48;;;10.13;;
32748;SDS011;19119;52.474;13.710;2024-03-07T15:53:01;23.33;;;12.52;;
32748;SDS011;19119;52.474;13.710;2024-03-07T15:55:29;19.65;;;10.82;;
32748;SDS011;19119;52.474;13.710;2024-03-07T15:58:01;23.88;;;9.45;;
32748;SDS011;19119;52.474;13.710;2024-03-07T16:00:31;20.85;;;11.13;;
32748;SDS011;19119;52.474;13.710;2024-03-07T16:03:01;24.88;;;12.73;;
32748;SDS011;19119;52.474;13.710;2024-03-07T16:05:29;22.05;;;11.65;;
32748;SDS011;19119;52.474;13.710;2024-03-07T16:07:56;20.40;;;11.43;;
32748;SDS011;19119;52.474;13.710;2024-03-07T16:10:23;23.15;;;12.23;;
32748;SDS011;19119;52.474;13.710;2024-03-07T16:12:51;19.23;;;11.88;;
32748;SDS011;19119;52.474;13.710;2024-03-07T16:15:18;20.33;;;10.38;;
32748;SDS011;19119;52.474;13.710;2024-03-07T16:17:48;25.20;;;10.70;;
32748;SDS011;19119;52.474;13.710;2024-03-07T16:20:21;22.50;;;11.77;;